Time;durP1;ratioP1;P1;durP2;ratioP2;P2;SDS_P1;SDS_P2;PMS_P1;PMS_P2;Temp;Humidity;BMP_temperature;BMP_pressure;BME280_temperature;BME280_humidity;BME280_pressure;Samples;Min_cycle;Max_cycle;Signal;HPM_P1;HPM_P2
2022/06/01 00:01:25;;;;;;;;;;;20.00;51.90;;;;;;468019;254;1062;-78
2022/06/01 00:03:27;;;;;;;;;;;20.00;52.00;;;;;;468058;254;1095;-78
2022/06/01 00:05:28;;;;;;;;;;;20.00;52.00;;;;;;468021;254;1132;-78
2022/06/01 00:07:29;;;;;;;;;;;19.90;52.00;;;;;;468214;254;1223;-78
2022/06/01 00:09:31;;;;;;;;;;;20.00;52.10;;;;;;468179;254;1089;-78
2022/06/01 00:11:32;;;;;;;;;;;20.10;52.00;;;;;;468033;254;1169;-78
2022/06/01 00:13:33;;;;;;;;;;;20.10;51.90;;;;;;468063;254;1224;-78
2022/06/01 00:15:35;;;;;;;;;;;20.10;51.80;;;;;;468065;254;2204;-78
2022/06/01 00:17:36;;;;;;;;;;;20.10;51.90;;;;;;468041;254;1170;-78
2022/06/01 00:19:37;;;;;;;;;;;20.10;51.90;;;;;;468048;254;1257;-78
2022/06/01 00:22:11;;;;;;;;;;;20.20;51.70;;;;;;468143;254;1160;-78
2022/06/01 00:23:40;;;;;;;;;;;20.20;51.50;;;;;;466792;255;1181;-78
2022/06/01 00:25:42;;;;;;;;;;;20.20;51.50;;;;;;468042;254;1272;-78
2022/06/01 00:27:43;;;;;;;;;;;20.20;51.40;;;;;;468031;254;1124;-78
2022/06/01 00:29:44;;;;;;;;;;;20.30;51.20;;;;;;468018;254;1192;-78
2022/06/01 00:31:45;;;;;;;;;;;20.20;51.20;;;;;;468072;254;1163;-78
2022/06/01 00:33:47;;;;;;;;;;;20.30;51.10;;;;;;468257;254;1104;-78
2022/06/01 00:35:48;;;;;;;;;;;20.30;51.20;;;;;;468074;254;2134;-77
2022/06/01 00:37:49;;;;;;;;;;;20.20;51.30;;;;;;468025;254;1186;-78
2022/06/01 00:39:53;;;;;;;;;;;20.20;51.20;;;;;;468012;254;1140;-78
2022/06/01 00:41:52;;;;;;;;;;;20.20;51.30;;;;;;468206;254;1444;-78
2022/06/01 00:43:53;;;;;;;;;;;20.20;51.30;;;;;;468149;251;1153;-78
2022/06/01 00:45:55;;;;;;;;;;;20.10;51.30;;;;;;468024;254;1152;-78
2022/06/01 00:47:56;;;;;;;;;;;20.20;51.30;;;;;;467984;254;1133;-78
2022/06/01 00:49:57;;;;;;;;;;;20.10;51.40;;;;;;467997;254;1220;-78
2022/06/01 00:51:59;;;;;;;;;;;20.20;51.30;;;;;;468076;254;1192;-78
2022/06/01 00:54:00;;;;;;;;;;;20.10;51.30;;;;;;467949;254;1067;-78
2022/06/01 00:56:01;;;;;;;;;;;20.20;51.10;;;;;;467995;254;2203;-78
2022/06/01 00:58:03;;;;;;;;;;;20.10;51.20;;;;;;468086;254;985;-78
2022/06/01 01:00:04;;;;;;;;;;;20.10;51.30;;;;;;468056;254;967;-78
2022/06/01 01:02:06;;;;;;;;;;;20.10;51.30;;;;;;468081;254;1209;-78
2022/06/01 01:04:07;;;;;;;;;;;20.00;51.40;;;;;;468138;252;1416;-78
2022/06/01 01:06:08;;;;;;;;;;;20.00;51.50;;;;;;468087;254;1190;-78
2022/06/01 01:08:10;;;;;;;;;;;20.00;51.50;;;;;;468227;254;1210;-78
2022/06/01 01:10:11;;;;;;;;;;;20.00;51.50;;;;;;468224;254;1199;-78
2022/06/01 01:12:12;;;;;;;;;;;20.00;51.30;;;;;;467931;254;1241;-78
2022/06/01 01:14:14;;;;;;;;;;;20.00;51.50;;;;;;468178;254;1179;-78
2022/06/01 01:16:15;;;;;;;;;;;20.00;51.40;;;;;;468030;254;2193;-78
2022/06/01 01:18:17;;;;;;;;;;;20.00;51.40;;;;;;468062;254;1246;-78
2022/06/01 01:20:18;;;;;;;;;;;20.00;51.30;;;;;;468229;254;1096;-78
2022/06/01 01:22:19;;;;;;;;;;;20.00;51.20;;;;;;467994;254;1171;-78
2022/06/01 01:24:22;;;;;;;;;;;20.00;51.20;;;;;;468029;254;1139;-78
2022/06/01 01:26:22;;;;;;;;;;;20.00;51.20;;;;;;468164;254;1305;-78
2022/06/01 01:28:23;;;;;;;;;;;20.10;51.20;;;;;;468271;254;1097;-78
2022/06/01 01:30:24;;;;;;;;;;;20.10;51.10;;;;;;468052;254;1185;-78
2022/06/01 01:32:26;;;;;;;;;;;20.10;51.10;;;;;;467986;254;1316;-78
2022/06/01 01:34:28;;;;;;;;;;;20.10;51.00;;;;;;468053;254;1169;-78
2022/06/01 01:36:29;;;;;;;;;;;20.00;51.00;;;;;;468163;254;2212;-78
2022/06/01 01:38:30;;;;;;;;;;;20.00;51.00;;;;;;468009;254;1206;-78
2022/06/01 01:40:32;;;;;;;;;;;20.10;51.00;;;;;;468037;254;1208;-78
2022/06/01 01:42:33;;;;;;;;;;;20.10;50.90;;;;;;468023;254;1066;-78
2022/06/01 01:44:34;;;;;;;;;;;20.10;50.80;;;;;;468100;254;1209;-78
2022/06/01 01:46:36;;;;;;;;;;;20.10;51.00;;;;;;467979;254;1176;-78
2022/06/01 01:48:37;;;;;;;;;;;20.00;51.10;;;;;;467999;254;1097;-78
2022/06/01 01:50:38;;;;;;;;;;;20.10;50.90;;;;;;468006;254;1195;-78
2022/06/01 01:52:40;;;;;;;;;;;20.10;50.70;;;;;;468249;254;1161;-78
2022/06/01 01:54:42;;;;;;;;;;;20.10;50.70;;;;;;468038;254;1102;-78
2022/06/01 01:56:43;;;;;;;;;;;20.10;50.80;;;;;;467990;254;2204;-78
2022/06/01 01:58:44;;;;;;;;;;;20.10;50.80;;;;;;468187;254;1185;-78
2022/06/01 02:00:45;;;;;;;;;;;20.10;50.80;;;;;;468212;254;1183;-78
2022/06/01 02:02:47;;;;;;;;;;;20.10;50.90;;;;;;468111;254;1250;-78
2022/06/01 02:07:08;;;;;;;;;;;20.00;50.80;;;;;;474073;251;1237;-78
2022/06/01 02:09:09;;;;;;;;;;;20.00;50.80;;;;;;474079;250;1482;-79
2022/06/01 02:13:30;;;;;;;;;;;20.10;50.80;;;;;;476182;250;1235;-78
2022/06/01 02:15:31;;;;;;;;;;;20.00;50.80;;;;;;474119;251;1216;-78
2022/06/01 02:17:32;;;;;;;;;;;20.10;50.80;;;;;;474214;251;2185;-78
2022/06/01 02:19:34;;;;;;;;;;;20.10;50.90;;;;;;467652;255;1192;-78
2022/06/01 02:21:35;;;;;;;;;;;20.10;50.70;;;;;;468007;255;1169;-78
2022/06/01 02:23:36;;;;;;;;;;;20.00;50.80;;;;;;468156;254;1129;-78
2022/06/01 02:25:38;;;;;;;;;;;20.00;50.90;;;;;;468220;254;1207;-78
2022/06/01 02:27:39;;;;;;;;;;;20.00;51.00;;;;;;468082;254;1141;-78
2022/06/01 02:29:40;;;;;;;;;;;20.00;51.00;;;;;;468192;254;1250;-78
2022/06/01 02:31:42;;;;;;;;;;;20.00;50.90;;;;;;468301;254;1195;-78
2022/06/01 02:33:43;;;;;;;;;;;20.00;50.90;;;;;;468303;254;1179;-78
2022/06/01 02:35:44;;;;;;;;;;;20.00;50.70;;;;;;468222;254;2220;-78
2022/06/01 02:37:46;;;;;;;;;;;20.10;50.80;;;;;;468271;254;1163;-78
2022/06/01 02:39:47;;;;;;;;;;;20.00;50.70;;;;;;468044;254;1178;-78
2022/06/01 02:44:08;;;;;;;;;;;20.00;50.90;;;;;;474101;251;1266;-78
2022/06/01 02:46:10;;;;;;;;;;;20.10;50.80;;;;;;474058;250;1182;-78
2022/06/01 02:48:10;;;;;;;;;;;20.10;50.70;;;;;;474082;251;1166;-78
2022/06/01 02:50:12;;;;;;;;;;;20.00;50.80;;;;;;476247;250;1158;-78
2022/06/01 02:52:13;;;;;;;;;;;20.00;50.70;;;;;;474089;250;1230;-78
2022/06/01 02:54:15;;;;;;;;;;;20.00;50.90;;;;;;474220;251;1274;-78
2022/06/01 02:56:16;;;;;;;;;;;20.10;50.70;;;;;;467635;255;2213;-78
2022/06/01 02:58:17;;;;;;;;;;;20.00;50.80;;;;;;468090;255;1045;-78
2022/06/01 03:00:19;;;;;;;;;;;20.00;50.80;;;;;;468139;254;941;-78
2022/06/01 03:02:20;;;;;;;;;;;20.00;50.70;;;;;;468072;254;1046;-78
2022/06/01 03:04:21;;;;;;;;;;;20.10;50.70;;;;;;468121;254;1245;-78
2022/06/01 03:06:23;;;;;;;;;;;20.10;50.70;;;;;;468352;254;1019;-78
2022/06/01 03:08:25;;;;;;;;;;;20.10;50.60;;;;;;468137;254;953;-78
2022/06/01 03:10:25;;;;;;;;;;;20.10;50.60;;;;;;468093;254;1429;-78
2022/06/01 03:12:27;;;;;;;;;;;20.10;50.50;;;;;;467995;254;1136;-78
2022/06/01 03:14:28;;;;;;;;;;;20.20;50.50;;;;;;468055;254;1084;-78
2022/06/01 03:16:29;;;;;;;;;;;20.20;50.50;;;;;;468021;254;2204;-78
2022/06/01 03:18:31;;;;;;;;;;;20.20;50.40;;;;;;468152;254;1136;-78
2022/06/01 03:20:33;;;;;;;;;;;20.20;50.40;;;;;;468009;254;1223;-78
2022/06/01 03:22:34;;;;;;;;;;;20.20;50.40;;;;;;468088;255;1496;-78
2022/06/01 03:24:35;;;;;;;;;;;20.10;50.50;;;;;;468058;252;1249;-78
2022/06/01 03:26:36;;;;;;;;;;;20.10;50.50;;;;;;468182;254;1095;-78
2022/06/01 03:28:37;;;;;;;;;;;20.10;50.70;;;;;;468290;254;1168;-78
2022/06/01 03:30:39;;;;;;;;;;;20.00;50.60;;;;;;468297;254;1244;-78
2022/06/01 03:32:40;;;;;;;;;;;20.00;50.60;;;;;;468129;254;1147;-78
2022/06/01 03:34:42;;;;;;;;;;;20.00;50.60;;;;;;468084;254;1178;-78
2022/06/01 03:36:43;;;;;;;;;;;20.00;50.60;;;;;;467921;254;2165;-78
2022/06/01 03:38:44;;;;;;;;;;;20.00;50.70;;;;;;468225;254;1119;-78
2022/06/01 03:40:46;;;;;;;;;;;20.00;50.80;;;;;;467997;254;1185;-78
2022/06/01 03:42:47;;;;;;;;;;;20.00;50.60;;;;;;468006;254;1219;-78
2022/06/01 03:47:09;;;;;;;;;;;20.00;50.60;;;;;;474039;251;1133;-78
2022/06/01 03:49:10;;;;;;;;;;;20.00;50.60;;;;;;474133;250;1038;-78
2022/06/01 03:51:11;;;;;;;;;;;20.00;50.60;;;;;;474097;251;999;-78
2022/06/01 03:53:13;;;;;;;;;;;20.00;50.60;;;;;;476297;250;1090;-78
2022/06/01 03:55:14;;;;;;;;;;;20.00;50.60;;;;;;474143;251;1191;-78
2022/06/01 03:57:16;;;;;;;;;;;20.00;50.60;;;;;;474086;251;2197;-78
2022/06/01 03:59:17;;;;;;;;;;;20.00;50.60;;;;;;475942;250;981;-78
2022/06/01 04:01:18;;;;;;;;;;;20.10;50.50;;;;;;474050;250;1403;-78
2022/06/01 04:03:20;;;;;;;;;;;20.20;50.40;;;;;;474042;251;1065;-78
2022/06/01 04:05:21;;;;;;;;;;;20.30;50.30;;;;;;476015;250;1023;-78
2022/06/01 04:07:22;;;;;;;;;;;20.30;50.20;;;;;;474287;251;1217;-78
2022/06/01 04:09:24;;;;;;;;;;;20.30;50.20;;;;;;474086;251;988;-78
2022/06/01 04:11:25;;;;;;;;;;;20.30;50.10;;;;;;475902;250;1134;-78
2022/06/01 04:13:27;;;;;;;;;;;20.30;50.20;;;;;;474014;250;1050;-78
2022/06/01 04:15:28;;;;;;;;;;;20.40;50.20;;;;;;474266;251;1240;-78
2022/06/01 04:17:29;;;;;;;;;;;20.40;50.20;;;;;;476081;250;2129;-78
2022/06/01 04:19:31;;;;;;;;;;;20.40;50.40;;;;;;474250;251;1220;-79
2022/06/01 04:21:32;;;;;;;;;;;20.50;50.40;;;;;;473975;251;1207;-78
2022/06/01 04:23:33;;;;;;;;;;;20.50;50.50;;;;;;475883;250;1140;-78
2022/06/01 04:25:35;;;;;;;;;;;20.50;50.50;;;;;;474043;251;1178;-78
2022/06/01 04:27:36;;;;;;;;;;;20.50;50.50;;;;;;474206;251;1071;-78
2022/06/01 04:29:37;;;;;;;;;;;20.50;50.40;;;;;;475912;250;1097;-78
2022/06/01 04:31:39;;;;;;;;;;;20.50;50.40;;;;;;474048;251;1257;-78
2022/06/01 04:33:40;;;;;;;;;;;20.50;50.40;;;;;;474201;251;1119;-78
2022/06/01 04:35:41;;;;;;;;;;;20.50;50.40;;;;;;475883;250;1260;-78
2022/06/01 04:37:43;;;;;;;;;;;20.40;50.50;;;;;;474038;251;2189;-78
2022/06/01 04:39:44;;;;;;;;;;;20.40;50.60;;;;;;474090;251;1059;-78
2022/06/01 04:41:45;;;;;;;;;;;20.40;50.60;;;;;;475929;250;1220;-78
2022/06/01 04:43:47;;;;;;;;;;;20.40;50.60;;;;;;474353;251;1121;-78
2022/06/01 04:45:48;;;;;;;;;;;20.40;50.70;;;;;;474012;251;1142;-78
2022/06/01 04:47:49;;;;;;;;;;;20.30;50.80;;;;;;475910;250;1140;-78
2022/06/01 04:49:50;;;;;;;;;;;20.40;50.80;;;;;;474167;251;1092;-78
2022/06/01 04:51:52;;;;;;;;;;;20.40;50.60;;;;;;473965;251;1219;-78
2022/06/01 04:53:53;;;;;;;;;;;20.40;50.70;;;;;;476014;250;1232;-78
2022/06/01 04:55:54;;;;;;;;;;;20.40;50.60;;;;;;473941;251;1167;-78
2022/06/01 04:57:56;;;;;;;;;;;20.40;50.60;;;;;;474095;251;2189;-78
2022/06/01 04:59:57;;;;;;;;;;;20.50;50.50;;;;;;467457;255;1125;-78
2022/06/01 05:01:58;;;;;;;;;;;20.50;50.40;;;;;;467803;255;1230;-78
2022/06/01 05:04:00;;;;;;;;;;;20.50;50.40;;;;;;467860;254;1065;-78
2022/06/01 05:06:01;;;;;;;;;;;20.60;50.40;;;;;;467814;254;1145;-78
2022/06/01 05:08:02;;;;;;;;;;;20.60;50.30;;;;;;467839;254;1111;-78
2022/06/01 05:10:04;;;;;;;;;;;20.60;50.30;;;;;;468046;254;1164;-78
2022/06/01 05:12:05;;;;;;;;;;;20.60;50.20;;;;;;468022;254;1201;-78
2022/06/01 05:14:06;;;;;;;;;;;20.70;50.10;;;;;;467895;252;1257;-78
2022/06/01 05:16:08;;;;;;;;;;;20.60;50.30;;;;;;467803;254;1068;-78
2022/06/01 05:18:10;;;;;;;;;;;20.60;50.50;;;;;;467887;254;2195;-78
2022/06/01 05:20:10;;;;;;;;;;;20.50;50.60;;;;;;468162;254;1416;-78
2022/06/01 05:22:12;;;;;;;;;;;20.50;50.60;;;;;;467790;254;1154;-78
2022/06/01 05:24:13;;;;;;;;;;;20.60;50.70;;;;;;467768;254;1111;-78
2022/06/01 05:26:14;;;;;;;;;;;20.50;50.80;;;;;;467761;251;1201;-78
2022/06/01 05:28:15;;;;;;;;;;;20.40;50.80;;;;;;467997;254;1397;-78
2022/06/01 05:30:17;;;;;;;;;;;20.40;50.90;;;;;;467656;254;1068;-78
2022/06/01 05:32:18;;;;;;;;;;;20.40;51.00;;;;;;467592;254;1169;-78
2022/06/01 05:34:19;;;;;;;;;;;20.30;51.00;;;;;;467929;254;1131;-78
2022/06/01 05:36:21;;;;;;;;;;;20.40;51.10;;;;;;467837;254;1243;-78
2022/06/01 05:38:22;;;;;;;;;;;20.40;50.90;;;;;;467870;254;2205;-78
2022/06/01 05:40:25;;;;;;;;;;;20.50;50.90;;;;;;467733;254;1089;-78
2022/06/01 05:42:25;;;;;;;;;;;20.50;50.90;;;;;;467621;255;1409;-78
2022/06/01 05:44:26;;;;;;;;;;;20.50;50.90;;;;;;467499;254;1200;-78
2022/06/01 05:46:27;;;;;;;;;;;20.50;50.80;;;;;;467550;254;1198;-78
2022/06/01 05:48:29;;;;;;;;;;;20.50;50.80;;;;;;467552;254;1094;-78
2022/06/01 05:50:30;;;;;;;;;;;20.50;50.80;;;;;;467617;254;1146;-78
2022/06/01 05:52:31;;;;;;;;;;;20.60;50.60;;;;;;467629;254;1166;-78
2022/06/01 05:54:33;;;;;;;;;;;20.70;50.50;;;;;;467972;254;1250;-78
2022/06/01 05:56:34;;;;;;;;;;;20.60;50.50;;;;;;467817;254;1188;-78
2022/06/01 05:58:35;;;;;;;;;;;20.70;50.50;;;;;;467543;254;2188;-78
2022/06/01 06:00:37;;;;;;;;;;;21.10;50.10;;;;;;467567;254;1350;-78
2022/06/01 06:02:38;;;;;;;;;;;21.30;49.50;;;;;;467825;254;1083;-78
2022/06/01 06:04:39;;;;;;;;;;;21.40;49.20;;;;;;467657;254;1234;-78
2022/06/01 06:06:40;;;;;;;;;;;21.30;49.20;;;;;;467741;254;1101;-78
2022/06/01 06:08:42;;;;;;;;;;;21.30;49.30;;;;;;467760;254;1211;-78
2022/06/01 06:10:43;;;;;;;;;;;21.20;49.40;;;;;;467601;254;1084;-78
2022/06/01 06:12:44;;;;;;;;;;;21.10;49.70;;;;;;467487;254;1272;-78
2022/06/01 06:14:47;;;;;;;;;;;21.00;50.30;;;;;;467588;254;1191;-78
2022/06/01 06:16:47;;;;;;;;;;;21.10;50.50;;;;;;467352;254;1505;-78
2022/06/01 06:18:50;;;;;;;;;;;21.20;50.50;;;;;;467592;254;2220;-78
2022/06/01 06:20:50;;;;;;;;;;;21.20;50.60;;;;;;467868;255;1364;-78
2022/06/01 06:22:51;;;;;;;;;;;21.20;50.20;;;;;;467741;254;1171;-78
2022/06/01 06:24:52;;;;;;;;;;;21.20;50.50;;;;;;467528;254;1104;-78
2022/06/01 06:26:54;;;;;;;;;;;21.20;50.80;;;;;;467436;254;1194;-78
2022/06/01 06:28:55;;;;;;;;;;;21.20;50.90;;;;;;467707;254;1063;-78
2022/06/01 06:30:56;;;;;;;;;;;21.30;50.60;;;;;;467573;254;1114;-78
2022/06/01 06:32:58;;;;;;;;;;;21.20;50.60;;;;;;467574;254;1171;-78
2022/06/01 06:34:59;;;;;;;;;;;21.20;50.70;;;;;;467445;254;1109;-78
2022/06/01 06:37:00;;;;;;;;;;;21.10;50.70;;;;;;467699;254;1169;-78
2022/06/01 06:39:02;;;;;;;;;;;21.00;50.70;;;;;;467457;254;2192;-78
2022/06/01 06:41:03;;;;;;;;;;;21.10;50.60;;;;;;467609;254;1155;-78
2022/06/01 06:43:04;;;;;;;;;;;21.10;50.30;;;;;;467573;254;1196;-78
2022/06/01 06:45:06;;;;;;;;;;;21.10;50.10;;;;;;467499;254;1167;-78
2022/06/01 06:47:07;;;;;;;;;;;21.30;49.80;;;;;;467633;254;1411;-78
2022/06/01 06:49:09;;;;;;;;;;;21.80;49.20;;;;;;467540;254;1229;-79
2022/06/01 06:51:10;;;;;;;;;;;22.60;48.30;;;;;;467394;254;1499;-79
2022/06/01 06:53:11;;;;;;;;;;;23.50;46.80;;;;;;467743;254;1120;-79
2022/06/01 06:55:12;;;;;;;;;;;24.60;45.50;;;;;;467615;254;1115;-79
2022/06/01 06:57:13;;;;;;;;;;;25.50;44.30;;;;;;467791;254;2196;-79
2022/06/01 06:59:16;;;;;;;;;;;26.30;43.50;;;;;;467866;252;1134;-79
2022/06/01 07:01:17;;;;;;;;;;;27.00;42.80;;;;;;467628;254;1154;-79
2022/06/01 07:03:18;;;;;;;;;;;27.70;42.10;;;;;;467955;251;1095;-79
2022/06/01 07:07:40;;;;;;;;;;;28.70;41.10;;;;;;467829;255;1260;-79
2022/06/01 07:09:41;;;;;;;;;;;29.10;40.80;;;;;;467609;254;1259;-79
2022/06/01 07:11:42;;;;;;;;;;;29.40;40.70;;;;;;467616;254;1160;-79
2022/06/01 07:13:44;;;;;;;;;;;29.70;40.40;;;;;;473577;250;1190;-79
2022/06/01 07:15:45;;;;;;;;;;;30.10;39.90;;;;;;473759;250;1170;-79
2022/06/01 07:17:46;;;;;;;;;;;30.50;39.60;;;;;;473566;251;2197;-79
2022/06/01 07:19:48;;;;;;;;;;;31.00;39.10;;;;;;467000;255;1182;-79
2022/06/01 07:21:49;;;;;;;;;;;31.40;38.50;;;;;;467618;255;1491;-79
2022/06/01 07:23:50;;;;;;;;;;;31.80;38.10;;;;;;467630;254;1134;-79
2022/06/01 07:25:52;;;;;;;;;;;32.30;37.30;;;;;;467451;254;1241;-79
2022/06/01 07:27:54;;;;;;;;;;;32.60;36.50;;;;;;467420;254;1447;-79
2022/06/01 07:29:55;;;;;;;;;;;32.70;35.80;;;;;;467619;254;1402;-79
2022/06/01 07:31:56;;;;;;;;;;;32.20;35.80;;;;;;467656;254;1312;-78
2022/06/01 07:33:58;;;;;;;;;;;31.60;36.20;;;;;;467156;254;1194;-78
2022/06/01 07:35:59;;;;;;;;;;;31.70;35.90;;;;;;467002;254;1289;-78
2022/06/01 07:44:58;;;;;;;;;;;27.80;39.40;;;;;;473618;251;1070;-78
2022/06/01 07:47:00;;;;;;;;;;;26.90;40.40;;;;;;475508;248;1107;-78
2022/06/01 07:49:01;;;;;;;;;;;26.20;41.40;;;;;;473614;251;1181;-77
2022/06/01 07:51:02;;;;;;;;;;;25.60;42.40;;;;;;475339;250;1264;-77
2022/06/01 07:53:04;;;;;;;;;;;25.00;43.30;;;;;;475137;250;1122;-77
2022/06/01 07:55:05;;;;;;;;;;;24.40;44.10;;;;;;475223;250;1175;-77
2022/06/01 07:57:06;;;;;;;;;;;24.00;44.60;;;;;;475721;250;1210;-77
2022/06/01 07:59:08;;;;;;;;;;;23.80;45.20;;;;;;475195;250;2199;-78
2022/06/01 08:01:09;;;;;;;;;;;23.40;45.60;;;;;;474982;250;1418;-78
2022/06/01 08:03:11;;;;;;;;;;;23.00;46.10;;;;;;475213;250;1099;-78
2022/06/01 08:05:13;;;;;;;;;;;22.70;46.90;;;;;;475151;250;1048;-79
2022/06/01 08:07:15;;;;;;;;;;;22.30;47.40;;;;;;475077;250;1205;-78
2022/06/01 08:09:16;;;;;;;;;;;22.10;48.00;;;;;;475079;250;1032;-78
2022/06/01 08:11:17;;;;;;;;;;;21.90;48.20;;;;;;475116;250;1105;-78
2022/06/01 08:13:18;;;;;;;;;;;21.70;48.50;;;;;;474953;250;1176;-77
2022/06/01 08:15:20;;;;;;;;;;;21.40;48.80;;;;;;474831;250;1072;-78
2022/06/01 08:17:21;;;;;;;;;;;21.10;49.30;;;;;;474929;250;1106;-78
2022/06/01 08:19:22;;;;;;;;;;;21.00;49.40;;;;;;475028;250;2172;-77
2022/06/01 08:21:24;;;;;;;;;;;20.90;49.80;;;;;;474908;250;1306;-78
2022/06/01 08:23:25;;;;;;;;;;;20.80;49.80;;;;;;475390;250;1095;-77
2022/06/01 08:25:26;;;;;;;;;;;20.80;49.90;;;;;;474954;250;985;-77
2022/06/01 08:27:28;;;;;;;;;;;20.70;49.90;;;;;;475175;250;1176;-78
2022/06/01 08:29:29;;;;;;;;;;;20.60;49.90;;;;;;467034;255;1243;-78
2022/06/01 08:31:30;;;;;;;;;;;20.60;50.00;;;;;;467727;250;1107;-78
2022/06/01 08:33:34;;;;;;;;;;;20.40;50.20;;;;;;468093;254;1189;-76
2022/06/01 08:35:34;;;;;;;;;;;20.30;50.30;;;;;;468069;251;1944;-76
2022/06/01 08:37:36;;;;;;;;;;;20.10;50.60;;;;;;468128;251;1291;-76
2022/06/01 08:39:37;;;;;;;;;;;20.00;50.90;;;;;;468030;254;2181;-76
2022/06/01 08:41:39;;;;;;;;;;;20.00;51.10;;;;;;468100;251;1158;-76
2022/06/01 08:43:40;;;;;;;;;;;19.90;51.20;;;;;;467813;254;1186;-75
2022/06/01 08:45:41;;;;;;;;;;;19.90;51.20;;;;;;467247;254;1270;-75
2022/06/01 08:47:43;;;;;;;;;;;20.10;50.70;;;;;;467819;254;1136;-75
2022/06/01 08:49:45;;;;;;;;;;;20.30;50.40;;;;;;468058;254;1117;-76
2022/06/01 08:51:45;;;;;;;;;;;20.50;49.80;;;;;;467501;254;1227;-75
2022/06/01 08:53:47;;;;;;;;;;;20.60;49.30;;;;;;467344;254;1305;-76
2022/06/01 08:55:48;;;;;;;;;;;20.60;49.10;;;;;;467401;251;1182;-74
2022/06/01 08:57:50;;;;;;;;;;;20.70;49.30;;;;;;467013;254;1215;-75
2022/06/01 08:59:51;;;;;;;;;;;20.70;49.20;;;;;;466915;254;2201;-75
2022/06/01 09:01:52;;;;;;;;;;;20.60;49.50;;;;;;466932;254;1197;-76
2022/06/01 09:03:54;;;;;;;;;;;20.40;49.50;;;;;;466802;254;1098;-76
2022/06/01 09:05:57;;;;;;;;;;;20.40;49.70;;;;;;466868;254;1227;-74
2022/06/01 09:07:56;;;;;;;;;;;20.40;49.80;;;;;;466501;254;1326;-75
2022/06/01 09:09:58;;;;;;;;;;;20.30;50.00;;;;;;466970;254;1206;-76
2022/06/01 09:11:59;;;;;;;;;;;20.10;50.10;;;;;;467398;254;1226;-75
2022/06/01 09:14:00;;;;;;;;;;;20.00;50.30;;;;;;467296;254;1228;-78
2022/06/01 09:16:02;;;;;;;;;;;20.40;49.70;;;;;;467081;254;1195;-78
2022/06/01 09:18:03;;;;;;;;;;;21.00;48.40;;;;;;467023;254;2224;-78
2022/06/01 09:22:39;;;;;;;;;;;21.70;46.80;;;;;;473259;251;1408;-78
2022/06/01 09:24:40;;;;;;;;;;;21.60;46.70;;;;;;473101;251;1342;-78
2022/06/01 09:26:41;;;;;;;;;;;21.60;46.60;;;;;;473143;251;1137;-79
2022/06/01 09:28:43;;;;;;;;;;;21.70;46.40;;;;;;475617;250;1264;-78
2022/06/01 09:30:44;;;;;;;;;;;21.80;46.40;;;;;;473852;251;1298;-78
2022/06/01 09:32:45;;;;;;;;;;;21.90;46.10;;;;;;473349;251;1110;-78
2022/06/01 09:34:47;;;;;;;;;;;22.10;46.10;;;;;;475131;250;1090;-78
2022/06/01 09:36:48;;;;;;;;;;;22.00;45.70;;;;;;473249;250;1247;-78
2022/06/01 09:38:49;;;;;;;;;;;22.00;45.80;;;;;;473407;251;2193;-78
2022/06/01 09:40:51;;;;;;;;;;;22.10;45.80;;;;;;474959;250;1196;-79
2022/06/01 09:42:52;;;;;;;;;;;22.10;45.90;;;;;;473312;250;1135;-79
2022/06/01 09:44:53;;;;;;;;;;;22.10;45.90;;;;;;473033;251;1170;-78
2022/06/01 09:46:55;;;;;;;;;;;22.20;45.70;;;;;;475485;250;1205;-78
2022/06/01 09:48:56;;;;;;;;;;;22.20;45.50;;;;;;473344;251;1480;-79
2022/06/01 09:50:57;;;;;;;;;;;22.40;45.40;;;;;;466845;255;1115;-78
2022/06/01 09:52:59;;;;;;;;;;;22.50;45.20;;;;;;467279;255;1366;-78
2022/06/01 09:55:00;;;;;;;;;;;22.40;45.10;;;;;;467224;254;1064;-78
2022/06/01 09:57:02;;;;;;;;;;;22.50;45.10;;;;;;467502;254;1053;-78
2022/06/01 10:06:07;;;;;;;;;;;22.60;44.70;;;;;;467077;254;1350;-78
2022/06/01 10:08:08;;;;;;;;;;;22.60;44.60;;;;;;467653;255;1393;-78
2022/06/01 10:10:10;;;;;;;;;;;22.70;44.60;;;;;;467264;254;1120;-78
2022/06/01 10:12:11;;;;;;;;;;;22.70;44.50;;;;;;467520;251;1127;-78
2022/06/01 10:14:13;;;;;;;;;;;22.70;44.50;;;;;;467143;254;1153;-78
2022/06/01 10:16:15;;;;;;;;;;;22.80;44.40;;;;;;467494;254;1299;-78
2022/06/01 10:18:15;;;;;;;;;;;22.80;44.30;;;;;;467930;254;1051;-78
2022/06/01 10:20:17;;;;;;;;;;;22.80;44.30;;;;;;473310;251;2201;-78
2022/06/01 10:22:18;;;;;;;;;;;22.90;44.30;;;;;;473673;250;1170;-78
2022/06/01 10:24:20;;;;;;;;;;;22.90;44.10;;;;;;473337;251;1121;-78
2022/06/01 10:26:21;;;;;;;;;;;22.90;44.10;;;;;;475176;250;1196;-78
2022/06/01 10:28:22;;;;;;;;;;;22.90;44.00;;;;;;473345;251;1208;-78
2022/06/01 10:30:23;;;;;;;;;;;22.90;44.00;;;;;;473731;251;1172;-78
2022/06/01 10:32:25;;;;;;;;;;;22.90;44.00;;;;;;475339;250;1157;-78
2022/06/01 10:34:26;;;;;;;;;;;22.90;43.90;;;;;;473499;251;1160;-78
2022/06/01 10:36:27;;;;;;;;;;;23.10;43.50;;;;;;473291;251;1175;-78
2022/06/01 10:38:29;;;;;;;;;;;23.00;43.60;;;;;;467483;255;1332;-78
2022/06/01 10:40:30;;;;;;;;;;;23.00;43.80;;;;;;467338;254;1108;-78
2022/06/01 10:44:52;;;;;;;;;;;23.00;43.70;;;;;;467241;255;1270;-78
2022/06/01 10:46:53;;;;;;;;;;;23.00;43.70;;;;;;467405;254;1410;-78
2022/06/01 10:48:55;;;;;;;;;;;23.00;43.70;;;;;;467370;254;1140;-78
2022/06/01 10:50:56;;;;;;;;;;;23.00;43.60;;;;;;467297;254;1225;-79
2022/06/01 10:52:57;;;;;;;;;;;23.00;43.60;;;;;;467180;254;1128;-78
2022/06/01 10:54:58;;;;;;;;;;;23.00;43.70;;;;;;467112;254;1084;-78
2022/06/01 10:57:00;;;;;;;;;;;23.00;43.70;;;;;;467238;254;1214;-78
2022/06/01 10:59:01;;;;;;;;;;;23.00;43.60;;;;;;467776;254;2208;-78
2022/06/01 11:01:02;;;;;;;;;;;23.10;43.50;;;;;;467260;254;1170;-78
2022/06/01 11:03:04;;;;;;;;;;;23.10;43.60;;;;;;467723;251;1210;-78
2022/06/01 11:05:09;;;;;;;;;;;23.10;43.50;;;;;;467282;254;1140;-78
2022/06/01 11:07:06;;;;;;;;;;;23.10;43.50;;;;;;467513;255;1316;-78
2022/06/01 11:09:07;;;;;;;;;;;23.10;43.40;;;;;;467654;254;1157;-78
2022/06/01 11:11:09;;;;;;;;;;;23.20;43.30;;;;;;467270;254;1179;-78
2022/06/01 11:13:12;;;;;;;;;;;23.10;43.30;;;;;;467954;254;1020;-78
2022/06/01 11:15:13;;;;;;;;;;;23.10;43.30;;;;;;467587;251;1268;-79
2022/06/01 11:17:13;;;;;;;;;;;23.10;43.20;;;;;;467646;251;1252;-78
2022/06/01 11:19:15;;;;;;;;;;;23.10;43.10;;;;;;467390;254;2192;-78
2022/06/01 11:21:16;;;;;;;;;;;23.10;43.10;;;;;;467356;254;1120;-78
2022/06/01 11:23:17;;;;;;;;;;;23.10;43.10;;;;;;467583;254;1327;-79
2022/06/01 11:25:19;;;;;;;;;;;23.20;43.10;;;;;;473314;250;1208;-79
2022/06/01 11:27:20;;;;;;;;;;;23.20;43.00;;;;;;473318;250;1042;-78
2022/06/01 11:29:21;;;;;;;;;;;23.10;43.10;;;;;;473279;251;1118;-78
2022/06/01 11:31:23;;;;;;;;;;;23.20;42.90;;;;;;475597;250;1253;-78
2022/06/01 11:33:24;;;;;;;;;;;23.10;42.90;;;;;;473386;251;1018;-78
2022/06/01 11:35:28;;;;;;;;;;;23.40;42.70;;;;;;466822;255;1201;-78
2022/06/01 11:37:27;;;;;;;;;;;23.30;42.70;;;;;;467065;255;1320;-78
2022/06/01 11:39:28;;;;;;;;;;;23.20;42.70;;;;;;467669;254;2224;-78
2022/06/01 11:41:29;;;;;;;;;;;23.20;42.80;;;;;;467415;254;1187;-78
2022/06/01 11:43:31;;;;;;;;;;;23.10;42.90;;;;;;467824;254;1498;-78
2022/06/01 11:45:32;;;;;;;;;;;23.20;42.70;;;;;;467228;252;1282;-78
2022/06/01 11:47:33;;;;;;;;;;;23.20;42.80;;;;;;467280;251;1132;-78
2022/06/01 11:49:35;;;;;;;;;;;23.20;42.80;;;;;;467894;254;1232;-78
2022/06/01 11:51:36;;;;;;;;;;;23.20;42.90;;;;;;467594;254;1135;-78
2022/06/01 11:53:37;;;;;;;;;;;23.20;42.80;;;;;;467705;254;1130;-78
2022/06/01 11:55:39;;;;;;;;;;;23.30;42.70;;;;;;467360;254;1381;-78
2022/06/01 11:57:40;;;;;;;;;;;23.40;42.50;;;;;;467490;254;1274;-78
2022/06/01 11:59:41;;;;;;;;;;;23.40;42.40;;;;;;467790;251;2213;-78
2022/06/01 12:01:43;;;;;;;;;;;23.50;42.40;;;;;;467576;254;1547;-78
2022/06/01 12:03:44;;;;;;;;;;;23.50;42.30;;;;;;467657;254;1192;-78
2022/06/01 12:05:45;;;;;;;;;;;23.50;42.40;;;;;;467285;254;1132;-78
2022/06/01 12:07:47;;;;;;;;;;;23.60;42.10;;;;;;467781;254;1143;-78
2022/06/01 12:09:48;;;;;;;;;;;23.50;42.20;;;;;;467293;254;1237;-78
2022/06/01 12:11:49;;;;;;;;;;;23.60;42.20;;;;;;467857;252;1403;-78
2022/06/01 12:13:51;;;;;;;;;;;23.60;42.10;;;;;;467459;254;1307;-78
2022/06/01 12:15:52;;;;;;;;;;;23.70;42.10;;;;;;467399;254;1312;-78
2022/06/01 12:17:53;;;;;;;;;;;23.70;41.90;;;;;;467687;254;1243;-78
2022/06/01 12:19:55;;;;;;;;;;;23.60;42.00;;;;;;467666;254;2213;-78
2022/06/01 12:21:56;;;;;;;;;;;23.60;42.20;;;;;;467282;254;1206;-78
2022/06/01 12:28:36;;;;;;;;;;;23.40;42.50;;;;;;473531;251;1113;-78
2022/06/01 12:30:37;;;;;;;;;;;23.40;42.50;;;;;;473520;251;1127;-78
2022/06/01 12:32:38;;;;;;;;;;;23.40;42.40;;;;;;475444;250;1188;-78